sensor_id;sensor_type;location;lat;lon;timestamp;temperature;humidity
35746;DHT22;21870;42.812;74.628;2023-05-07T00:01:59;12.60;96.60
35746;DHT22;21870;42.812;74.628;2023-05-07T00:04:25;12.60;96.20
35746;DHT22;21870;42.812;74.628;2023-05-07T00:06:51;12.50;96.40
35746;DHT22;21870;42.812;74.628;2023-05-07T00:09:17;12.40;96.50
35746;DHT22;21870;42.812;74.628;2023-05-07T00:11:43;12.20;97.20
35746;DHT22;21870;42.812;74.628;2023-05-07T00:14:09;12.10;97.40
35746;DHT22;21870;42.812;74.628;2023-05-07T00:16:35;12.10;98.50
35746;DHT22;21870;42.812;74.628;2023-05-07T00:19:01;12.20;99.60
35746;DHT22;21870;42.812;74.628;2023-05-07T00:21:27;12.20;99.60
35746;DHT22;21870;42.812;74.628;2023-05-07T00:23:56;12.20;99.90
35746;DHT22;21870;42.812;74.628;2023-05-07T00:26:22;12.20;99.90
35746;DHT22;21870;42.812;74.628;2023-05-07T00:28:48;12.20;99.90
35746;DHT22;21870;42.812;74.628;2023-05-07T00:31:14;12.20;99.90
35746;DHT22;21870;42.812;74.628;2023-05-07T00:33:41;12.30;99.90
35746;DHT22;21870;42.812;74.628;2023-05-07T00:36:07;12.30;99.90
35746;DHT22;21870;42.812;74.628;2023-05-07T00:38:33;12.30;99.90
35746;DHT22;21870;42.812;74.628;2023-05-07T00:40:59;12.30;99.90
35746;DHT22;21870;42.812;74.628;2023-05-07T00:43:25;12.40;99.90
35746;DHT22;21870;42.812;74.628;2023-05-07T00:45:53;12.40;97.80
35746;DHT22;21870;42.812;74.628;2023-05-07T00:48:19;12.20;95.60
35746;DHT22;21870;42.812;74.628;2023-05-07T00:50:46;12.10;95.40
35746;DHT22;21870;42.812;74.628;2023-05-07T00:53:13;12.00;95.40
35746;DHT22;21870;42.812;74.628;2023-05-07T00:55:39;12.00;94.40
35746;DHT22;21870;42.812;74.628;2023-05-07T00:58:06;12.00;93.90
35746;DHT22;21870;42.812;74.628;2023-05-07T01:00:32;11.90;93.60
35746;DHT22;21870;42.812;74.628;2023-05-07T01:02:58;11.80;93.50
35746;DHT22;21870;42.812;74.628;2023-05-07T01:05:25;11.90;93.40
35746;DHT22;21870;42.812;74.628;2023-05-07T01:07:53;11.90;93.20
35746;DHT22;21870;42.812;74.628;2023-05-07T01:10:21;11.90;93.00
35746;DHT22;21870;42.812;74.628;2023-05-07T01:12:48;12.10;92.80
35746;DHT22;21870;42.812;74.628;2023-05-07T01:15:15;12.10;92.40
35746;DHT22;21870;42.812;74.628;2023-05-07T01:17:42;12.20;92.40
35746;DHT22;21870;42.812;74.628;2023-05-07T01:20:09;12.30;92.60
35746;DHT22;21870;42.812;74.628;2023-05-07T01:22:40;12.40;92.40
35746;DHT22;21870;42.812;74.628;2023-05-07T01:25:07;12.60;92.40
35746;DHT22;21870;42.812;74.628;2023-05-07T01:27:34;12.80;91.70
35746;DHT22;21870;42.812;74.628;2023-05-07T01:30:02;13.00;91.70
35746;DHT22;21870;42.812;74.628;2023-05-07T01:33:03;13.10;91.70
35746;DHT22;21870;42.812;74.628;2023-05-07T01:35:30;13.20;91.50
35746;DHT22;21870;42.812;74.628;2023-05-07T01:37:58;13.30;91.30
35746;DHT22;21870;42.812;74.628;2023-05-07T01:40:25;13.40;91.60
35746;DHT22;21870;42.812;74.628;2023-05-07T01:42:51;13.50;91.40
35746;DHT22;21870;42.812;74.628;2023-05-07T01:45:18;13.60;91.20
35746;DHT22;21870;42.812;74.628;2023-05-07T01:47:44;13.70;91.40
35746;DHT22;21870;42.812;74.628;2023-05-07T01:50:10;13.90;90.90
35746;DHT22;21870;42.812;74.628;2023-05-07T01:52:38;14.10;90.50
35746;DHT22;21870;42.812;74.628;2023-05-07T01:55:05;14.20;90.00
35746;DHT22;21870;42.812;74.628;2023-05-07T01:57:31;14.40;90.00
35746;DHT22;21870;42.812;74.628;2023-05-07T01:59:57;14.50;89.50
35746;DHT22;21870;42.812;74.628;2023-05-07T02:02:23;14.70;90.00
35746;DHT22;21870;42.812;74.628;2023-05-07T02:04:49;14.90;90.20
35746;DHT22;21870;42.812;74.628;2023-05-07T02:07:15;15.10;90.20
35746;DHT22;21870;42.812;74.628;2023-05-07T02:09:41;15.30;89.50
35746;DHT22;21870;42.812;74.628;2023-05-07T02:12:08;15.40;89.30
35746;DHT22;21870;42.812;74.628;2023-05-07T02:14:34;15.60;89.90
35746;DHT22;21870;42.812;74.628;2023-05-07T02:17:00;15.70;87.30
35746;DHT22;21870;42.812;74.628;2023-05-07T02:19:26;15.90;87.40
35746;DHT22;21870;42.812;74.628;2023-05-07T02:21:52;16.00;86.80
35746;DHT22;21870;42.812;74.628;2023-05-07T02:24:18;16.20;85.40
35746;DHT22;21870;42.812;74.628;2023-05-07T02:26:44;16.30;84.60
35746;DHT22;21870;42.812;74.628;2023-05-07T02:29:10;16.40;84.90
35746;DHT22;21870;42.812;74.628;2023-05-07T02:31:37;16.50;84.50
35746;DHT22;21870;42.812;74.628;2023-05-07T02:34:03;16.50;84.60
35746;DHT22;21870;42.812;74.628;2023-05-07T02:36:29;16.80;83.30
35746;DHT22;21870;42.812;74.628;2023-05-07T02:38:58;16.90;83.00
35746;DHT22;21870;42.812;74.628;2023-05-07T02:41:24;16.90;81.70
35746;DHT22;21870;42.812;74.628;2023-05-07T02:43:51;16.90;81.50
35746;DHT22;21870;42.812;74.628;2023-05-07T02:46:17;17.00;82.80
35746;DHT22;21870;42.812;74.628;2023-05-07T02:48:43;17.30;83.60
35746;DHT22;21870;42.812;74.628;2023-05-07T02:51:09;17.50;83.70
35746;DHT22;21870;42.812;74.628;2023-05-07T02:53:35;17.60;82.30
35746;DHT22;21870;42.812;74.628;2023-05-07T02:56:01;17.80;80.80
35746;DHT22;21870;42.812;74.628;2023-05-07T02:58:28;17.90;80.90
35746;DHT22;21870;42.812;74.628;2023-05-07T03:00:54;18.00;80.70
35746;DHT22;21870;42.812;74.628;2023-05-07T03:03:21;18.10;79.30
35746;DHT22;21870;42.812;74.628;2023-05-07T03:05:47;18.30;78.40
35746;DHT22;21870;42.812;74.628;2023-05-07T03:08:13;18.30;78.60
35746;DHT22;21870;42.812;74.628;2023-05-07T03:10:39;18.30;78.70
35746;DHT22;21870;42.812;74.628;2023-05-07T03:13:05;18.50;78.60
35746;DHT22;21870;42.812;74.628;2023-05-07T03:15:31;18.50;77.30
35746;DHT22;21870;42.812;74.628;2023-05-07T03:17:58;18.50;79.00
35746;DHT22;21870;42.812;74.628;2023-05-07T03:20:24;18.60;79.90
35746;DHT22;21870;42.812;74.628;2023-05-07T03:22:50;18.80;79.70
35746;DHT22;21870;42.812;74.628;2023-05-07T03:25:16;18.90;78.50
35746;DHT22;21870;42.812;74.628;2023-05-07T03:27:42;19.00;79.50
35746;DHT22;21870;42.812;74.628;2023-05-07T03:30:08;19.00;77.60
35746;DHT22;21870;42.812;74.628;2023-05-07T03:32:35;19.10;76.70
35746;DHT22;21870;42.812;74.628;2023-05-07T03:35:02;19.10;76.80
35746;DHT22;21870;42.812;74.628;2023-05-07T03:37:28;19.30;77.70
35746;DHT22;21870;42.812;74.628;2023-05-07T03:39:54;19.30;78.30
35746;DHT22;21870;42.812;74.628;2023-05-07T03:42:20;19.40;79.70
35746;DHT22;21870;42.812;74.628;2023-05-07T03:44:46;19.40;80.40
35746;DHT22;21870;42.812;74.628;2023-05-07T03:47:12;19.50;78.50
35746;DHT22;21870;42.812;74.628;2023-05-07T03:49:39;19.70;78.60
35746;DHT22;21870;42.812;74.628;2023-05-07T03:52:05;19.90;78.70
35746;DHT22;21870;42.812;74.628;2023-05-07T03:54:32;20.10;78.60
35746;DHT22;21870;42.812;74.628;2023-05-07T03:57:00;20.30;78.40
35746;DHT22;21870;42.812;74.628;2023-05-07T03:59:27;20.40;78.30
35746;DHT22;21870;42.812;74.628;2023-05-07T04:01:53;20.50;78.00
35746;DHT22;21870;42.812;74.628;2023-05-07T04:04:19;20.60;79.30
35746;DHT22;21870;42.812;74.628;2023-05-07T04:06:45;20.70;78.30
35746;DHT22;21870;42.812;74.628;2023-05-07T04:09:12;20.70;78.00
35746;DHT22;21870;42.812;74.628;2023-05-07T04:11:38;20.70;79.00
35746;DHT22;21870;42.812;74.628;2023-05-07T04:14:06;21.00;80.10
35746;DHT22;21870;42.812;74.628;2023-05-07T04:16:32;21.10;80.00
35746;DHT22;21870;42.812;74.628;2023-05-07T04:18:58;21.20;77.90
35746;DHT22;21870;42.812;74.628;2023-05-07T04:21:24;21.40;79.90
35746;DHT22;21870;42.812;74.628;2023-05-07T04:23:52;21.70;78.40
35746;DHT22;21870;42.812;74.628;2023-05-07T04:26:18;21.80;77.90
35746;DHT22;21870;42.812;74.628;2023-05-07T04:28:44;21.70;75.80
35746;DHT22;21870;42.812;74.628;2023-05-07T04:31:10;21.70;76.00
35746;DHT22;21870;42.812;74.628;2023-05-07T04:33:36;21.50;77.60
35746;DHT22;21870;42.812;74.628;2023-05-07T04:36:03;21.50;76.60
35746;DHT22;21870;42.812;74.628;2023-05-07T04:38:30;21.40;76.10
35746;DHT22;21870;42.812;74.628;2023-05-07T04:40:58;21.60;75.80
35746;DHT22;21870;42.812;74.628;2023-05-07T04:43:24;21.80;77.00
35746;DHT22;21870;42.812;74.628;2023-05-07T04:45:51;22.00;76.20
35746;DHT22;21870;42.812;74.628;2023-05-07T04:48:17;22.00;75.70
35746;DHT22;21870;42.812;74.628;2023-05-07T04:50:48;22.00;75.30
35746;DHT22;21870;42.812;74.628;2023-05-07T04:53:14;22.10;73.90
35746;DHT22;21870;42.812;74.628;2023-05-07T04:55:40;22.20;73.60
35746;DHT22;21870;42.812;74.628;2023-05-07T04:58:09;22.20;74.30
35746;DHT22;21870;42.812;74.628;2023-05-07T05:00:35;22.30;74.60
35746;DHT22;21870;42.812;74.628;2023-05-07T05:03:01;22.60;73.90
35746;DHT22;21870;42.812;74.628;2023-05-07T05:05:27;22.60;73.10
35746;DHT22;21870;42.812;74.628;2023-05-07T05:07:53;22.70;72.80
35746;DHT22;21870;42.812;74.628;2023-05-07T05:10:19;22.80;71.70
35746;DHT22;21870;42.812;74.628;2023-05-07T05:12:45;22.80;69.60
35746;DHT22;21870;42.812;74.628;2023-05-07T05:15:12;22.90;68.40
35746;DHT22;21870;42.812;74.628;2023-05-07T05:17:39;22.70;69.00
35746;DHT22;21870;42.812;74.628;2023-05-07T05:20:05;22.70;68.40
35746;DHT22;21870;42.812;74.628;2023-05-07T05:22:32;22.80;67.00
35746;DHT22;21870;42.812;74.628;2023-05-07T05:25:01;22.90;66.60
35746;DHT22;21870;42.812;74.628;2023-05-07T05:27:28;22.80;65.40
35746;DHT22;21870;42.812;74.628;2023-05-07T05:29:54;23.00;65.40
35746;DHT22;21870;42.812;74.628;2023-05-07T05:32:20;23.10;69.00
35746;DHT22;21870;42.812;74.628;2023-05-07T05:34:46;23.10;69.20
35746;DHT22;21870;42.812;74.628;2023-05-07T05:37:12;23.10;67.80
35746;DHT22;21870;42.812;74.628;2023-05-07T05:39:38;23.20;67.80
35746;DHT22;21870;42.812;74.628;2023-05-07T05:42:04;23.20;69.90
35746;DHT22;21870;42.812;74.628;2023-05-07T05:44:31;23.40;71.10
35746;DHT22;21870;42.812;74.628;2023-05-07T05:46:57;23.40;67.10
35746;DHT22;21870;42.812;74.628;2023-05-07T05:49:25;23.40;67.10
35746;DHT22;21870;42.812;74.628;2023-05-07T05:51:51;23.50;66.80
35746;DHT22;21870;42.812;74.628;2023-05-07T05:54:17;23.70;66.10
35746;DHT22;21870;42.812;74.628;2023-05-07T05:56:43;23.90;65.30
35746;DHT22;21870;42.812;74.628;2023-05-07T05:59:10;24.00;64.80
35746;DHT22;21870;42.812;74.628;2023-05-07T06:01:36;24.00;65.20
35746;DHT22;21870;42.812;74.628;2023-05-07T06:04:02;24.00;64.70
35746;DHT22;21870;42.812;74.628;2023-05-07T06:06:28;24.00;64.10
35746;DHT22;21870;42.812;74.628;2023-05-07T06:08:54;24.20;64.50
35746;DHT22;21870;42.812;74.628;2023-05-07T06:11:20;24.30;62.80
35746;DHT22;21870;42.812;74.628;2023-05-07T06:13:47;24.20;60.60
35746;DHT22;21870;42.812;74.628;2023-05-07T06:16:13;24.30;62.70
35746;DHT22;21870;42.812;74.628;2023-05-07T06:18:39;24.20;61.40
35746;DHT22;21870;42.812;74.628;2023-05-07T06:21:05;24.20;62.00
35746;DHT22;21870;42.812;74.628;2023-05-07T06:23:32;24.10;62.50
35746;DHT22;21870;42.812;74.628;2023-05-07T06:25:58;24.00;63.70
35746;DHT22;21870;42.812;74.628;2023-05-07T06:28:24;24.00;64.00
35746;DHT22;21870;42.812;74.628;2023-05-07T06:30:50;23.90;63.40
35746;DHT22;21870;42.812;74.628;2023-05-07T06:33:16;23.90;64.70
35746;DHT22;21870;42.812;74.628;2023-05-07T06:35:42;24.10;65.30
35746;DHT22;21870;42.812;74.628;2023-05-07T06:38:08;24.10;65.30
35746;DHT22;21870;42.812;74.628;2023-05-07T06:40:34;24.30;62.90
35746;DHT22;21870;42.812;74.628;2023-05-07T06:43:00;24.30;61.80
35746;DHT22;21870;42.812;74.628;2023-05-07T06:45:26;24.30;61.30
35746;DHT22;21870;42.812;74.628;2023-05-07T06:47:53;24.50;60.00
35746;DHT22;21870;42.812;74.628;2023-05-07T06:50:19;24.50;59.00
35746;DHT22;21870;42.812;74.628;2023-05-07T06:52:45;24.60;61.40
35746;DHT22;21870;42.812;74.628;2023-05-07T06:55:11;24.70;60.20
35746;DHT22;21870;42.812;74.628;2023-05-07T06:57:38;24.50;61.60
35746;DHT22;21870;42.812;74.628;2023-05-07T07:00:05;24.50;61.50
35746;DHT22;21870;42.812;74.628;2023-05-07T07:02:34;24.50;62.50
35746;DHT22;21870;42.812;74.628;2023-05-07T07:05:00;24.50;63.40
35746;DHT22;21870;42.812;74.628;2023-05-07T07:07:26;24.30;63.60
35746;DHT22;21870;42.812;74.628;2023-05-07T07:09:52;24.30;63.50
35746;DHT22;21870;42.812;74.628;2023-05-07T07:12:21;24.40;63.70
35746;DHT22;21870;42.812;74.628;2023-05-07T07:14:48;24.50;64.20
35746;DHT22;21870;42.812;74.628;2023-05-07T07:17:14;24.70;63.50
35746;DHT22;21870;42.812;74.628;2023-05-07T07:19:40;24.80;63.50
35746;DHT22;21870;42.812;74.628;2023-05-07T07:22:06;25.00;66.50
35746;DHT22;21870;42.812;74.628;2023-05-07T07:24:32;24.90;65.60
35746;DHT22;21870;42.812;74.628;2023-05-07T07:26:58;24.90;63.90
35746;DHT22;21870;42.812;74.628;2023-05-07T07:29:25;24.90;64.50
35746;DHT22;21870;42.812;74.628;2023-05-07T07:31:52;24.90;65.70
35746;DHT22;21870;42.812;74.628;2023-05-07T07:34:18;25.10;65.60
35746;DHT22;21870;42.812;74.628;2023-05-07T07:36:44;25.20;64.50
35746;DHT22;21870;42.812;74.628;2023-05-07T07:39:10;25.20;62.80
35746;DHT22;21870;42.812;74.628;2023-05-07T07:41:36;25.20;62.10
35746;DHT22;21870;42.812;74.628;2023-05-07T07:44:03;25.20;62.00
35746;DHT22;21870;42.812;74.628;2023-05-07T07:46:32;25.30;62.10
35746;DHT22;21870;42.812;74.628;2023-05-07T07:48:58;25.40;62.10
35746;DHT22;21870;42.812;74.628;2023-05-07T07:51:25;25.20;62.00
35746;DHT22;21870;42.812;74.628;2023-05-07T07:53:52;25.30;63.70
35746;DHT22;21870;42.812;74.628;2023-05-07T07:56:18;25.20;61.90
35746;DHT22;21870;42.812;74.628;2023-05-07T07:58:44;25.20;61.80
35746;DHT22;21870;42.812;74.628;2023-05-07T08:01:10;25.20;62.90
35746;DHT22;21870;42.812;74.628;2023-05-07T08:03:38;25.20;61.70
35746;DHT22;21870;42.812;74.628;2023-05-07T08:06:04;25.10;62.80
35746;DHT22;21870;42.812;74.628;2023-05-07T08:08:30;25.40;62.40
35746;DHT22;21870;42.812;74.628;2023-05-07T08:10:56;25.50;61.70
35746;DHT22;21870;42.812;74.628;2023-05-07T08:13:22;25.40;62.50
35746;DHT22;21870;42.812;74.628;2023-05-07T08:15:51;25.60;62.40
35746;DHT22;21870;42.812;74.628;2023-05-07T08:18:18;25.70;61.30
35746;DHT22;21870;42.812;74.628;2023-05-07T08:20:44;25.60;60.10
35746;DHT22;21870;42.812;74.628;2023-05-07T08:23:10;25.50;60.00
35746;DHT22;21870;42.812;74.628;2023-05-07T08:25:36;25.50;59.90
35746;DHT22;21870;42.812;74.628;2023-05-07T08:28:03;25.50;61.00
35746;DHT22;21870;42.812;74.628;2023-05-07T08:30:29;25.60;60.70
35746;DHT22;21870;42.812;74.628;2023-05-07T08:32:55;25.70;60.90
35746;DHT22;21870;42.812;74.628;2023-05-07T08:35:21;25.70;61.30
35746;DHT22;21870;42.812;74.628;2023-05-07T08:37:47;25.60;61.20
35746;DHT22;21870;42.812;74.628;2023-05-07T08:40:13;25.50;61.20
35746;DHT22;21870;42.812;74.628;2023-05-07T08:42:40;25.50;63.40
35746;DHT22;21870;42.812;74.628;2023-05-07T08:45:09;25.70;61.80
35746;DHT22;21870;42.812;74.628;2023-05-07T08:47:46;25.50;62.00
35746;DHT22;21870;42.812;74.628;2023-05-07T08:50:13;25.40;62.30
35746;DHT22;21870;42.812;74.628;2023-05-07T08:52:40;25.50;62.70
35746;DHT22;21870;42.812;74.628;2023-05-07T08:55:07;25.50;62.60
35746;DHT22;21870;42.812;74.628;2023-05-07T08:57:33;25.60;62.70
35746;DHT22;21870;42.812;74.628;2023-05-07T09:00:00;25.70;62.30
35746;DHT22;21870;42.812;74.628;2023-05-07T09:02:26;25.60;62.90
35746;DHT22;21870;42.812;74.628;2023-05-07T09:04:52;25.70;61.40
35746;DHT22;21870;42.812;74.628;2023-05-07T09:07:19;25.60;61.30
35746;DHT22;21870;42.812;74.628;2023-05-07T09:09:46;25.60;61.50
35746;DHT22;21870;42.812;74.628;2023-05-07T09:12:12;25.60;62.50
35746;DHT22;21870;42.812;74.628;2023-05-07T09:14:38;25.60;61.60
35746;DHT22;21870;42.812;74.628;2023-05-07T09:17:05;25.60;61.30
35746;DHT22;21870;42.812;74.628;2023-05-07T09:19:31;25.80;61.00
35746;DHT22;21870;42.812;74.628;2023-05-07T09:22:04;25.90;61.70
35746;DHT22;21870;42.812;74.628;2023-05-07T09:24:31;25.90;61.40
35746;DHT22;21870;42.812;74.628;2023-05-07T09:27:01;25.80;61.90
35746;DHT22;21870;42.812;74.628;2023-05-07T09:29:28;25.70;61.10
35746;DHT22;21870;42.812;74.628;2023-05-07T09:32:05;25.60;60.60
35746;DHT22;21870;42.812;74.628;2023-05-07T09:34:32;25.60;60.00
35746;DHT22;21870;42.812;74.628;2023-05-07T09:37:01;25.60;60.00
35746;DHT22;21870;42.812;74.628;2023-05-07T09:39:49;25.70;62.10
35746;DHT22;21870;42.812;74.628;2023-05-07T09:42:15;25.50;61.40
35746;DHT22;21870;42.812;74.628;2023-05-07T09:44:45;25.30;61.10
35746;DHT22;21870;42.812;74.628;2023-05-07T09:47:18;25.30;61.40
35746;DHT22;21870;42.812;74.628;2023-05-07T09:49:47;25.20;61.90
35746;DHT22;21870;42.812;74.628;2023-05-07T09:52:14;25.30;61.90
35746;DHT22;21870;42.812;74.628;2023-05-07T09:54:40;25.10;62.20
35746;DHT22;21870;42.812;74.628;2023-05-07T09:57:12;25.40;62.40
35746;DHT22;21870;42.812;74.628;2023-05-07T09:59:42;25.30;61.00
35746;DHT22;21870;42.812;74.628;2023-05-07T10:02:09;25.20;61.20
35746;DHT22;21870;42.812;74.628;2023-05-07T10:04:38;25.10;62.00
35746;DHT22;21870;42.812;74.628;2023-05-07T10:07:07;25.20;61.80
35746;DHT22;21870;42.812;74.628;2023-05-07T10:09:35;25.20;61.40
35746;DHT22;21870;42.812;74.628;2023-05-07T10:12:05;25.20;61.50
35746;DHT22;21870;42.812;74.628;2023-05-07T10:14:32;25.10;60.90
35746;DHT22;21870;42.812;74.628;2023-05-07T10:16:59;25.10;61.30
35746;DHT22;21870;42.812;74.628;2023-05-07T10:19:26;25.00;63.10
35746;DHT22;21870;42.812;74.628;2023-05-07T10:22:03;25.20;62.20
35746;DHT22;21870;42.812;74.628;2023-05-07T10:24:34;25.20;62.30
35746;DHT22;21870;42.812;74.628;2023-05-07T10:27:05;25.20;62.00
35746;DHT22;21870;42.812;74.628;2023-05-07T10:32:47;25.00;62.10
35746;DHT22;21870;42.812;74.628;2023-05-07T10:35:26;24.90;61.90
35746;DHT22;21870;42.812;74.628;2023-05-07T10:37:52;24.90;61.90
35746;DHT22;21870;42.812;74.628;2023-05-07T10:40:20;24.90;61.80
35746;DHT22;21870;42.812;74.628;2023-05-07T10:43:00;24.70;61.00
35746;DHT22;21870;42.812;74.628;2023-05-07T10:45:27;24.50;61.90
35746;DHT22;21870;42.812;74.628;2023-05-07T10:48:11;24.40;61.70
35746;DHT22;21870;42.812;74.628;2023-05-07T10:50:39;24.30;62.00
35746;DHT22;21870;42.812;74.628;2023-05-07T10:55:51;24.10;62.10
35746;DHT22;21870;42.812;74.628;2023-05-07T11:00:48;24.30;63.20
35746;DHT22;21870;42.812;74.628;2023-05-07T11:03:14;24.30;62.30
35746;DHT22;21870;42.812;74.628;2023-05-07T11:05:41;24.20;62.40
35746;DHT22;21870;42.812;74.628;2023-05-07T11:08:08;24.30;62.80
35746;DHT22;21870;42.812;74.628;2023-05-07T11:10:51;24.30;62.60
35746;DHT22;21870;42.812;74.628;2023-05-07T11:13:18;24.30;61.40
35746;DHT22;21870;42.812;74.628;2023-05-07T11:15:46;24.10;61.30
35746;DHT22;21870;42.812;74.628;2023-05-07T11:18:14;23.90;61.50
35746;DHT22;21870;42.812;74.628;2023-05-07T11:21:17;23.90;61.00
35746;DHT22;21870;42.812;74.628;2023-05-07T11:26:10;23.80;61.30
35746;DHT22;21870;42.812;74.628;2023-05-07T11:28:45;23.70;62.30
35746;DHT22;21870;42.812;74.628;2023-05-07T11:31:12;23.70;61.60
35746;DHT22;21870;42.812;74.628;2023-05-07T11:33:38;23.60;62.00
35746;DHT22;21870;42.812;74.628;2023-05-07T11:36:05;23.60;62.20
35746;DHT22;21870;42.812;74.628;2023-05-07T11:38:35;23.30;62.20
35746;DHT22;21870;42.812;74.628;2023-05-07T11:41:01;23.20;62.20
35746;DHT22;21870;42.812;74.628;2023-05-07T11:43:28;22.90;62.40
35746;DHT22;21870;42.812;74.628;2023-05-07T11:45:54;22.80;63.20
35746;DHT22;21870;42.812;74.628;2023-05-07T11:48:23;22.70;62.50
35746;DHT22;21870;42.812;74.628;2023-05-07T11:51:10;22.60;62.90
35746;DHT22;21870;42.812;74.628;2023-05-07T11:53:42;22.70;62.60
35746;DHT22;21870;42.812;74.628;2023-05-07T11:56:18;22.60;62.70
35746;DHT22;21870;42.812;74.628;2023-05-07T11:58:45;22.50;62.80
35746;DHT22;21870;42.812;74.628;2023-05-07T12:01:12;22.40;62.20
35746;DHT22;21870;42.812;74.628;2023-05-07T12:03:43;22.40;62.30
35746;DHT22;21870;42.812;74.628;2023-05-07T12:06:12;22.40;63.50
35746;DHT22;21870;42.812;74.628;2023-05-07T12:08:39;22.50;63.00
35746;DHT22;21870;42.812;74.628;2023-05-07T12:11:25;22.40;60.80
35746;DHT22;21870;42.812;74.628;2023-05-07T12:13:51;22.30;61.20
35746;DHT22;21870;42.812;74.628;2023-05-07T12:16:18;22.20;62.40
35746;DHT22;21870;42.812;74.628;2023-05-07T12:18:45;22.10;62.40
35746;DHT22;21870;42.812;74.628;2023-05-07T12:21:12;22.10;62.10
35746;DHT22;21870;42.812;74.628;2023-05-07T12:23:39;21.90;62.50
35746;DHT22;21870;42.812;74.628;2023-05-07T12:26:05;21.80;62.40
35746;DHT22;21870;42.812;74.628;2023-05-07T12:28:36;21.70;63.00
35746;DHT22;21870;42.812;74.628;2023-05-07T12:31:03;21.60;63.10
35746;DHT22;21870;42.812;74.628;2023-05-07T12:33:30;21.60;63.40
35746;DHT22;21870;42.812;74.628;2023-05-07T12:35:57;21.50;63.10
35746;DHT22;21870;42.812;74.628;2023-05-07T12:38:24;21.50;62.60
35746;DHT22;21870;42.812;74.628;2023-05-07T12:40:53;21.50;63.00
35746;DHT22;21870;42.812;74.628;2023-05-07T12:43:20;21.50;63.00
35746;DHT22;21870;42.812;74.628;2023-05-07T12:45:49;21.50;61.60
35746;DHT22;21870;42.812;74.628;2023-05-07T12:48:15;21.40;62.30
35746;DHT22;21870;42.812;74.628;2023-05-07T12:50:41;21.30;63.00
35746;DHT22;21870;42.812;74.628;2023-05-07T12:53:08;21.20;63.50
35746;DHT22;21870;42.812;74.628;2023-05-07T12:55:50;21.20;63.20
35746;DHT22;21870;42.812;74.628;2023-05-07T12:58:30;21.10;63.70
35746;DHT22;21870;42.812;74.628;2023-05-07T13:00:58;21.10;63.20
35746;DHT22;21870;42.812;74.628;2023-05-07T13:03:36;21.00;63.10
35746;DHT22;21870;42.812;74.628;2023-05-07T13:06:04;20.90;62.90
35746;DHT22;21870;42.812;74.628;2023-05-07T13:08:31;21.00;62.40
35746;DHT22;21870;42.812;74.628;2023-05-07T13:10:59;20.90;62.30
35746;DHT22;21870;42.812;74.628;2023-05-07T13:13:26;20.80;62.90
35746;DHT22;21870;42.812;74.628;2023-05-07T13:15:52;20.80;62.90
35746;DHT22;21870;42.812;74.628;2023-05-07T13:18:18;20.80;62.80
35746;DHT22;21870;42.812;74.628;2023-05-07T13:20:44;20.70;63.20
35746;DHT22;21870;42.812;74.628;2023-05-07T13:23:10;20.60;62.50
35746;DHT22;21870;42.812;74.628;2023-05-07T13:25:36;20.70;61.60
35746;DHT22;21870;42.812;74.628;2023-05-07T13:28:02;20.70;61.40
35746;DHT22;21870;42.812;74.628;2023-05-07T13:30:30;20.60;61.90
35746;DHT22;21870;42.812;74.628;2023-05-07T13:32:56;20.60;63.00
35746;DHT22;21870;42.812;74.628;2023-05-07T13:35:22;20.40;64.00
35746;DHT22;21870;42.812;74.628;2023-05-07T13:37:48;20.30;64.80
35746;DHT22;21870;42.812;74.628;2023-05-07T13:40:15;20.10;65.60
35746;DHT22;21870;42.812;74.628;2023-05-07T13:42:42;20.10;66.10
35746;DHT22;21870;42.812;74.628;2023-05-07T13:45:08;20.00;67.10
35746;DHT22;21870;42.812;74.628;2023-05-07T13:47:35;20.10;67.60
35746;DHT22;21870;42.812;74.628;2023-05-07T13:50:01;19.90;67.70
35746;DHT22;21870;42.812;74.628;2023-05-07T13:52:27;19.80;68.80
35746;DHT22;21870;42.812;74.628;2023-05-07T13:54:53;19.60;69.40
35746;DHT22;21870;42.812;74.628;2023-05-07T13:57:20;19.70;68.40
35746;DHT22;21870;42.812;74.628;2023-05-07T13:59:46;19.60;68.80
35746;DHT22;21870;42.812;74.628;2023-05-07T14:02:12;19.60;68.60
35746;DHT22;21870;42.812;74.628;2023-05-07T14:04:38;19.50;69.40
35746;DHT22;21870;42.812;74.628;2023-05-07T14:07:05;19.40;69.80
35746;DHT22;21870;42.812;74.628;2023-05-07T14:09:31;19.30;69.70
35746;DHT22;21870;42.812;74.628;2023-05-07T14:11:57;19.20;70.40
35746;DHT22;21870;42.812;74.628;2023-05-07T14:14:23;19.10;71.40
35746;DHT22;21870;42.812;74.628;2023-05-07T14:16:49;19.00;72.10
35746;DHT22;21870;42.812;74.628;2023-05-07T14:19:15;19.00;72.30
35746;DHT22;21870;42.812;74.628;2023-05-07T14:21:41;18.90;72.90
35746;DHT22;21870;42.812;74.628;2023-05-07T14:24:08;18.80;72.50
35746;DHT22;21870;42.812;74.628;2023-05-07T14:26:34;18.60;74.00
35746;DHT22;21870;42.812;74.628;2023-05-07T14:29:00;18.50;74.40
35746;DHT22;21870;42.812;74.628;2023-05-07T14:31:27;18.30;73.50
35746;DHT22;21870;42.812;74.628;2023-05-07T14:33:53;18.30;71.60
35746;DHT22;21870;42.812;74.628;2023-05-07T14:36:19;18.30;70.60
35746;DHT22;21870;42.812;74.628;2023-05-07T14:38:52;18.30;70.40
35746;DHT22;21870;42.812;74.628;2023-05-07T14:41:20;18.20;70.40
35746;DHT22;21870;42.812;74.628;2023-05-07T14:43:47;18.20;70.20
35746;DHT22;21870;42.812;74.628;2023-05-07T14:46:19;18.10;71.90
35746;DHT22;21870;42.812;74.628;2023-05-07T14:48:45;18.00;73.00
35746;DHT22;21870;42.812;74.628;2023-05-07T14:51:12;18.00;71.00
35746;DHT22;21870;42.812;74.628;2023-05-07T14:53:40;17.90;70.60
35746;DHT22;21870;42.812;74.628;2023-05-07T14:56:06;17.80;73.00
35746;DHT22;21870;42.812;74.628;2023-05-07T14:58:32;17.80;73.70
35746;DHT22;21870;42.812;74.628;2023-05-07T15:00:59;17.70;75.60
35746;DHT22;21870;42.812;74.628;2023-05-07T15:03:25;17.70;72.90
35746;DHT22;21870;42.812;74.628;2023-05-07T15:05:51;17.60;71.50
35746;DHT22;21870;42.812;74.628;2023-05-07T15:08:18;17.40;71.70
35746;DHT22;21870;42.812;74.628;2023-05-07T15:10:44;17.40;71.70
35746;DHT22;21870;42.812;74.628;2023-05-07T15:13:11;17.40;71.70
35746;DHT22;21870;42.812;74.628;2023-05-07T15:15:41;17.30;72.90
35746;DHT22;21870;42.812;74.628;2023-05-07T15:18:07;17.20;73.60
35746;DHT22;21870;42.812;74.628;2023-05-07T15:20:33;17.10;73.90
35746;DHT22;21870;42.812;74.628;2023-05-07T15:22:59;17.10;73.60
35746;DHT22;21870;42.812;74.628;2023-05-07T15:25:25;17.00;73.90
35746;DHT22;21870;42.812;74.628;2023-05-07T15:27:51;16.90;73.70